Time;durP1;ratioP1;P1;durP2;ratioP2;P2;SDS_P1;SDS_P2;PMS_P1;PMS_P2;Temp;Humidity;BMP_temperature;BMP_pressure;BME280_temperature;BME280_humidity;BME280_pressure;Samples;Min_cycle;Max_cycle;Signal;HPM_P1;HPM_P2
2021/05/03 00:01:51;;;;;;;3.78;1.35;;;;;;;;;;4996564;28;20134;-73
2021/05/03 00:04:18;;;;;;;3.70;1.40;;;;;;;;;;5004919;28;20762;-73
2021/05/03 00:06:44;;;;;;;2.95;1.52;;;;;;;;;;5006910;28;20066;-73
2021/05/03 00:09:11;;;;;;;2.55;1.40;;;;;;;;;;5003347;28;20062;-73
2021/05/03 00:11:37;;;;;;;2.30;1.30;;;;;;;;;;5003633;28;20034;-73
2021/05/03 00:14:04;;;;;;;2.20;1.45;;;;;;;;;;4987266;28;20045;-73
2021/05/03 00:16:31;;;;;;;2.53;1.50;;;;;;;;;;5004637;28;20144;-73
2021/05/03 00:18:58;;;;;;;3.17;1.60;;;;;;;;;;5005771;28;20048;-73
2021/05/03 00:21:25;;;;;;;4.28;1.70;;;;;;;;;;5006472;28;20133;-73
2021/05/03 00:23:51;;;;;;;3.20;1.60;;;;;;;;;;5005800;28;20057;-73
2021/05/03 00:26:18;;;;;;;3.05;1.70;;;;;;;;;;5004993;28;20072;-74
2021/05/03 00:28:44;;;;;;;3.13;1.60;;;;;;;;;;4996299;28;20032;-74
2021/05/03 00:31:11;;;;;;;3.50;1.50;;;;;;;;;;5002423;28;20064;-74
2021/05/03 00:33:38;;;;;;;2.83;1.50;;;;;;;;;;5005332;28;20049;-73
2021/05/03 00:36:10;;;;;;;3.08;1.65;;;;;;;;;;5006189;28;20037;-73
2021/05/03 00:38:37;;;;;;;2.50;1.50;;;;;;;;;;4993185;28;20049;-72
2021/05/03 00:41:04;;;;;;;3.17;1.70;;;;;;;;;;5004787;28;20038;-72
2021/05/03 00:43:30;;;;;;;2.70;1.65;;;;;;;;;;4986690;28;20406;-72
2021/05/03 00:45:57;;;;;;;2.97;1.52;;;;;;;;;;5005390;28;20119;-73
2021/05/03 00:48:23;;;;;;;2.90;1.40;;;;;;;;;;5001488;28;20096;-73
2021/05/03 00:50:50;;;;;;;3.05;1.67;;;;;;;;;;5019474;28;20120;-73
2021/05/03 00:53:17;;;;;;;4.03;1.80;;;;;;;;;;4995402;28;20588;-73
2021/05/03 00:55:43;;;;;;;3.13;1.65;;;;;;;;;;5002874;28;20145;-73
2021/05/03 00:58:10;;;;;;;2.47;1.55;;;;;;;;;;5003824;28;20069;-73
2021/05/03 01:00:37;;;;;;;2.95;1.42;;;;;;;;;;5019717;28;20076;-73
2021/05/03 01:03:05;;;;;;;3.55;1.45;;;;;;;;;;5001950;28;20049;-73
2021/05/03 01:05:32;;;;;;;2.42;1.60;;;;;;;;;;5001400;28;20357;-73
2021/05/03 01:07:59;;;;;;;2.78;1.52;;;;;;;;;;5003362;28;20066;-73
2021/05/03 01:10:26;;;;;;;2.90;1.63;;;;;;;;;;5001764;28;20069;-73
2021/05/03 01:12:53;;;;;;;2.95;1.55;;;;;;;;;;5004389;28;20129;-73
2021/05/03 01:15:24;;;;;;;3.38;1.80;;;;;;;;;;4996181;28;20112;-73
2021/05/03 01:17:55;;;;;;;3.55;1.88;;;;;;;;;;5020734;28;20078;-73
2021/05/03 01:20:24;;;;;;;3.38;1.67;;;;;;;;;;5004924;28;20107;-73
2021/05/03 01:22:51;;;;;;;2.22;1.50;;;;;;;;;;5007202;28;20053;-72
2021/05/03 01:25:17;;;;;;;3.05;1.63;;;;;;;;;;5003877;28;20049;-72
2021/05/03 01:27:45;;;;;;;3.28;1.80;;;;;;;;;;5005536;28;20093;-72
2021/05/03 01:30:11;;;;;;;2.85;1.50;;;;;;;;;;5003343;28;20494;-72
2021/05/03 01:32:38;;;;;;;3.15;1.45;;;;;;;;;;5002332;28;20142;-72
2021/05/03 01:35:05;;;;;;;3.28;1.60;;;;;;;;;;5003752;28;20074;-72
2021/05/03 01:37:31;;;;;;;2.80;1.63;;;;;;;;;;5002735;28;20375;-72
2021/05/03 01:39:58;;;;;;;3.42;1.65;;;;;;;;;;5001038;28;20512;-72
2021/05/03 01:42:25;;;;;;;3.00;1.70;;;;;;;;;;5003605;28;21010;-72
2021/05/03 01:45:01;;;;;;;2.53;1.48;;;;;;;;;;5000249;28;20069;-72
2021/05/03 01:47:28;;;;;;;2.88;1.60;;;;;;;;;;4997064;28;20551;-72
2021/05/03 01:49:54;;;;;;;2.75;1.63;;;;;;;;;;5016812;28;20501;-73
2021/05/03 01:52:22;;;;;;;3.13;1.80;;;;;;;;;;4986147;28;20030;-72
2021/05/03 01:54:48;;;;;;;2.88;1.67;;;;;;;;;;5003209;28;20101;-72
2021/05/03 01:57:19;;;;;;;3.47;1.88;;;;;;;;;;5002580;28;20404;-73
2021/05/03 01:59:47;;;;;;;4.10;1.83;;;;;;;;;;5009746;28;20799;-71
2021/05/03 02:02:13;;;;;;;3.83;1.98;;;;;;;;;;5004147;28;20385;-71
2021/05/03 02:04:40;;;;;;;2.85;1.88;;;;;;;;;;5003745;28;20088;-72
2021/05/03 02:07:06;;;;;;;3.17;1.77;;;;;;;;;;5000687;28;20106;-72
2021/05/03 02:09:33;;;;;;;2.45;1.63;;;;;;;;;;5008160;28;20042;-73
2021/05/03 02:11:59;;;;;;;2.70;1.85;;;;;;;;;;5003010;28;20042;-72
2021/05/03 02:14:25;;;;;;;2.60;1.65;;;;;;;;;;5001647;28;20468;-73
2021/05/03 02:16:52;;;;;;;2.88;2.00;;;;;;;;;;5002303;28;20075;-72
2021/05/03 02:19:18;;;;;;;3.85;2.03;;;;;;;;;;5001655;28;20073;-73
2021/05/03 02:21:45;;;;;;;3.47;1.92;;;;;;;;;;4999851;28;20072;-72
2021/05/03 02:24:11;;;;;;;2.97;1.63;;;;;;;;;;5001034;28;20037;-73
2021/05/03 02:26:40;;;;;;;2.35;1.70;;;;;;;;;;5000906;28;20064;-73
2021/05/03 02:29:07;;;;;;;3.10;1.55;;;;;;;;;;5003608;28;20103;-73
2021/05/03 02:31:33;;;;;;;2.38;1.70;;;;;;;;;;5005913;28;20069;-73
2021/05/03 02:34:00;;;;;;;3.80;1.83;;;;;;;;;;5003195;28;20049;-73
2021/05/03 02:36:26;;;;;;;2.90;1.77;;;;;;;;;;5001607;28;20065;-73
2021/05/03 02:38:52;;;;;;;3.80;2.00;;;;;;;;;;5001418;28;20069;-73
2021/05/03 02:41:19;;;;;;;2.30;1.60;;;;;;;;;;4994699;28;20121;-73
2021/05/03 02:43:46;;;;;;;3.72;1.90;;;;;;;;;;5012156;28;20061;-73
2021/05/03 02:46:13;;;;;;;3.78;2.00;;;;;;;;;;5007452;28;20050;-73
2021/05/03 02:48:39;;;;;;;2.63;1.67;;;;;;;;;;5017444;28;20123;-73
2021/05/03 02:51:06;;;;;;;2.97;1.77;;;;;;;;;;5003794;28;20081;-74
2021/05/03 02:53:32;;;;;;;3.30;1.90;;;;;;;;;;4999167;28;20042;-73
2021/05/03 02:55:58;;;;;;;3.30;1.92;;;;;;;;;;5003265;28;20107;-74
2021/05/03 02:58:25;;;;;;;3.00;2.00;;;;;;;;;;5003759;28;20065;-73
2021/05/03 03:00:51;;;;;;;3.60;1.95;;;;;;;;;;5001201;28;20050;-73
2021/05/03 03:03:18;;;;;;;3.22;1.80;;;;;;;;;;4995794;28;20030;-73
2021/05/03 03:05:44;;;;;;;2.60;1.63;;;;;;;;;;5004095;28;20078;-73
2021/05/03 03:08:11;;;;;;;3.55;1.77;;;;;;;;;;5001901;28;20034;-72
2021/05/03 03:10:37;;;;;;;4.20;2.00;;;;;;;;;;4997310;28;20120;-73
2021/05/03 03:13:04;;;;;;;2.97;1.80;;;;;;;;;;4994915;28;20057;-73
2021/05/03 03:15:33;;;;;;;2.88;1.60;;;;;;;;;;4998187;28;20196;-73
2021/05/03 03:18:01;;;;;;;4.03;2.00;;;;;;;;;;4998944;28;20076;-72
2021/05/03 03:20:27;;;;;;;3.47;2.13;;;;;;;;;;5000930;28;20885;-73
2021/05/03 03:22:54;;;;;;;3.63;2.35;;;;;;;;;;5000651;28;20121;-72
2021/05/03 03:25:20;;;;;;;3.38;1.98;;;;;;;;;;4999709;28;20061;-72
2021/05/03 03:27:47;;;;;;;2.97;1.88;;;;;;;;;;5002942;28;20041;-71
2021/05/03 03:30:14;;;;;;;3.70;2.35;;;;;;;;;;4999635;28;20676;-72
2021/05/03 03:32:43;;;;;;;3.38;1.92;;;;;;;;;;5011161;28;20042;-71
2021/05/03 03:35:14;;;;;;;2.95;1.73;;;;;;;;;;4996886;28;20050;-72
2021/05/03 03:37:41;;;;;;;3.80;2.00;;;;;;;;;;5001237;28;20607;-72
2021/05/03 03:40:08;;;;;;;7.10;2.17;;;;;;;;;;5000761;28;20999;-72
2021/05/03 03:42:34;;;;;;;3.28;1.88;;;;;;;;;;4997879;28;20451;-72
2021/05/03 03:45:01;;;;;;;4.20;2.05;;;;;;;;;;4998295;28;20044;-72
2021/05/03 03:47:28;;;;;;;3.83;2.03;;;;;;;;;;4998057;28;20034;-72
2021/05/03 03:49:55;;;;;;;3.75;2.00;;;;;;;;;;5000166;28;20046;-72
2021/05/03 03:52:23;;;;;;;4.20;2.10;;;;;;;;;;4996487;28;20490;-73
2021/05/03 03:54:50;;;;;;;3.55;1.77;;;;;;;;;;5000409;28;20086;-72
2021/05/03 03:57:17;;;;;;;2.92;1.90;;;;;;;;;;5001020;28;20065;-73
2021/05/03 03:59:46;;;;;;;4.05;2.08;;;;;;;;;;4991760;28;20175;-73
2021/05/03 04:02:12;;;;;;;4.32;1.90;;;;;;;;;;4997470;28;20116;-74
2021/05/03 04:04:42;;;;;;;3.47;2.00;;;;;;;;;;4999363;28;20084;-72
2021/05/03 04:07:18;;;;;;;2.55;1.75;;;;;;;;;;4998649;28;20638;-74
2021/05/03 04:09:56;;;;;;;3.03;1.75;;;;;;;;;;4999053;28;20546;-73
2021/05/03 04:26:34;;;;;;;3.20;1.88;;;;;;;;;;4957384;28;20038;-73
2021/05/03 04:29:00;;;;;;;3.38;1.77;;;;;;;;;;4981427;28;20390;-72
2021/05/03 04:31:27;;;;;;;6.03;2.08;;;;;;;;;;4997949;28;20061;-73
2021/05/03 04:33:53;;;;;;;4.20;2.13;;;;;;;;;;4983281;28;20894;-73
2021/05/03 04:36:20;;;;;;;3.45;2.05;;;;;;;;;;4998665;28;20111;-73
2021/05/03 04:38:47;;;;;;;4.38;2.20;;;;;;;;;;4999942;28;20069;-72
2021/05/03 04:41:13;;;;;;;3.35;1.85;;;;;;;;;;5001108;28;20072;-72
2021/05/03 04:43:40;;;;;;;6.32;1.92;;;;;;;;;;5001397;28;20061;-72
2021/05/03 04:46:06;;;;;;;3.42;1.83;;;;;;;;;;4997656;28;20038;-74
2021/05/03 04:48:33;;;;;;;3.15;1.80;;;;;;;;;;5003148;28;20042;-72
2021/05/03 04:50:59;;;;;;;4.47;2.10;;;;;;;;;;5001548;28;20046;-72
2021/05/03 04:53:26;;;;;;;3.67;2.08;;;;;;;;;;5035429;28;20045;-73
2021/05/03 04:55:53;;;;;;;2.75;1.90;;;;;;;;;;5006448;28;20800;-72
2021/05/03 04:58:19;;;;;;;2.95;1.90;;;;;;;;;;5003162;28;20100;-73
2021/05/03 05:00:46;;;;;;;4.07;2.03;;;;;;;;;;5004767;28;20104;-73
2021/05/03 05:03:12;;;;;;;5.07;1.90;;;;;;;;;;5001725;28;20557;-73
2021/05/03 05:05:39;;;;;;;3.63;2.13;;;;;;;;;;5005377;28;20038;-72
2021/05/03 05:08:06;;;;;;;3.53;2.00;;;;;;;;;;5000222;28;20501;-72
2021/05/03 05:10:32;;;;;;;3.30;2.00;;;;;;;;;;5003445;28;20034;-72
2021/05/03 05:12:58;;;;;;;3.08;2.17;;;;;;;;;;5002890;28;20084;-73
2021/05/03 05:15:25;;;;;;;2.53;1.80;;;;;;;;;;5003454;28;20505;-73
2021/05/03 05:17:51;;;;;;;3.15;1.98;;;;;;;;;;5000892;28;20100;-73
2021/05/03 05:20:20;;;;;;;4.22;2.15;;;;;;;;;;5002031;28;20048;-73
2021/05/03 05:22:48;;;;;;;3.80;1.90;;;;;;;;;;5036627;28;20064;-73
2021/05/03 05:25:14;;;;;;;3.28;1.70;;;;;;;;;;5003220;28;20066;-73
2021/05/03 05:27:41;;;;;;;4.93;2.13;;;;;;;;;;5005476;28;20037;-73
2021/05/03 05:30:09;;;;;;;3.25;1.90;;;;;;;;;;4996742;28;20036;-73
2021/05/03 05:32:35;;;;;;;3.17;1.92;;;;;;;;;;5006386;28;20111;-73
2021/05/03 05:35:02;;;;;;;4.88;1.92;;;;;;;;;;5004506;28;20416;-73
2021/05/03 05:37:29;;;;;;;3.58;1.92;;;;;;;;;;5003900;28;20053;-73
2021/05/03 05:39:55;;;;;;;2.92;1.83;;;;;;;;;;5004293;28;20070;-73
2021/05/03 05:42:22;;;;;;;3.63;2.28;;;;;;;;;;5012397;28;20037;-73
2021/05/03 05:44:48;;;;;;;3.17;1.95;;;;;;;;;;4998666;28;20627;-73
2021/05/03 05:47:15;;;;;;;3.10;2.08;;;;;;;;;;5003760;28;20073;-72
2021/05/03 05:49:41;;;;;;;3.22;2.17;;;;;;;;;;5003665;28;20044;-72
2021/05/03 05:52:08;;;;;;;3.33;2.00;;;;;;;;;;5019441;28;20107;-73
2021/05/03 05:54:34;;;;;;;2.58;1.92;;;;;;;;;;4998811;28;20552;-72
2021/05/03 05:57:01;;;;;;;3.42;1.92;;;;;;;;;;5003873;28;20036;-73
2021/05/03 05:59:27;;;;;;;3.80;2.30;;;;;;;;;;4995444;28;20064;-72
2021/05/03 06:01:54;;;;;;;3.08;2.00;;;;;;;;;;4999365;28;20070;-74
2021/05/03 06:04:20;;;;;;;3.55;1.88;;;;;;;;;;4998583;28;20537;-73
2021/05/03 06:06:47;;;;;;;3.50;1.83;;;;;;;;;;5002894;28;20057;-72
2021/05/03 06:09:14;;;;;;;3.05;1.83;;;;;;;;;;5014688;28;20560;-72
2021/05/03 06:11:40;;;;;;;3.67;1.80;;;;;;;;;;5002116;28;20069;-72
2021/05/03 06:14:06;;;;;;;3.15;1.90;;;;;;;;;;4992859;28;20512;-72
2021/05/03 06:16:33;;;;;;;3.25;1.95;;;;;;;;;;4997640;28;20053;-72
2021/05/03 06:18:59;;;;;;;3.95;2.05;;;;;;;;;;5000008;28;20517;-72
2021/05/03 06:21:27;;;;;;;3.25;2.13;;;;;;;;;;5002398;28;26368;-72
2021/05/03 06:23:53;;;;;;;3.78;2.00;;;;;;;;;;5002428;28;20105;-72
2021/05/03 06:26:20;;;;;;;2.95;1.90;;;;;;;;;;4999668;28;20115;-72
2021/05/03 06:28:46;;;;;;;2.92;1.80;;;;;;;;;;4996903;28;20061;-71
2021/05/03 06:31:13;;;;;;;4.07;2.10;;;;;;;;;;5016284;28;20084;-72
2021/05/03 06:33:39;;;;;;;2.90;1.90;;;;;;;;;;4981027;28;20481;-71
2021/05/03 06:36:06;;;;;;;2.72;1.77;;;;;;;;;;5016066;28;20045;-71
2021/05/03 06:38:32;;;;;;;2.75;2.05;;;;;;;;;;5016665;28;20030;-72
2021/05/03 06:40:59;;;;;;;5.28;2.00;;;;;;;;;;5025504;28;20565;-72
2021/05/03 06:43:25;;;;;;;3.20;1.90;;;;;;;;;;5011946;28;20070;-71
2021/05/03 06:45:52;;;;;;;3.45;1.90;;;;;;;;;;4993477;28;20065;-71
2021/05/03 06:48:19;;;;;;;3.78;1.80;;;;;;;;;;4981757;28;20158;-75
2021/05/03 06:50:46;;;;;;;2.33;1.60;;;;;;;;;;4993484;28;20062;-72
2021/05/03 06:53:13;;;;;;;4.25;1.88;;;;;;;;;;5001301;28;20069;-72
2021/05/03 06:55:40;;;;;;;4.80;1.67;;;;;;;;;;5002139;28;20038;-72
2021/05/03 06:58:06;;;;;;;5.32;2.20;;;;;;;;;;5001592;28;20034;-73
2021/05/03 07:00:38;;;;;;;3.15;1.98;;;;;;;;;;5002995;28;20143;-72
2021/05/03 07:03:05;;;;;;;5.03;2.03;;;;;;;;;;5004495;28;20070;-71
2021/05/03 07:05:31;;;;;;;3.25;2.00;;;;;;;;;;4999596;28;20104;-71
2021/05/03 07:07:58;;;;;;;3.38;1.83;;;;;;;;;;5017036;28;20069;-72
2021/05/03 07:10:25;;;;;;;3.40;1.70;;;;;;;;;;4999774;28;20143;-71
2021/05/03 07:12:51;;;;;;;3.17;1.65;;;;;;;;;;4956568;28;20133;-72
2021/05/03 07:15:18;;;;;;;2.70;1.60;;;;;;;;;;4990781;28;20741;-72
2021/05/03 07:17:46;;;;;;;3.38;1.60;;;;;;;;;;4999039;28;20133;-73
2021/05/03 07:20:13;;;;;;;3.53;1.80;;;;;;;;;;4994074;28;20135;-73
2021/05/03 07:22:39;;;;;;;2.88;1.83;;;;;;;;;;5017121;28;20050;-73
2021/05/03 07:25:07;;;;;;;3.88;1.80;;;;;;;;;;4996529;28;20066;-73
2021/05/03 07:27:34;;;;;;;1.92;1.65;;;;;;;;;;4996517;28;20439;-72
2021/05/03 07:30:01;;;;;;;2.83;1.67;;;;;;;;;;5002200;28;20599;-72
2021/05/03 07:32:27;;;;;;;3.08;1.80;;;;;;;;;;4994184;28;20119;-73
2021/05/03 07:34:54;;;;;;;3.35;1.70;;;;;;;;;;5002315;28;20177;-72
2021/05/03 07:37:20;;;;;;;2.72;1.60;;;;;;;;;;5001159;28;20065;-71
2021/05/03 07:39:47;;;;;;;3.97;1.70;;;;;;;;;;5002117;28;20580;-72
2021/05/03 07:42:13;;;;;;;2.10;1.60;;;;;;;;;;5000618;28;20072;-73
2021/05/03 07:44:40;;;;;;;3.38;1.50;;;;;;;;;;5000773;28;20065;-74
2021/05/03 07:47:06;;;;;;;2.78;1.70;;;;;;;;;;4999256;28;20167;-73
2021/05/03 07:49:33;;;;;;;1.85;1.20;;;;;;;;;;5000169;28;21328;-73
2021/05/03 07:51:59;;;;;;;3.05;1.45;;;;;;;;;;5002546;28;20883;-71
2021/05/03 07:54:26;;;;;;;3.22;1.60;;;;;;;;;;5014351;28;20638;-72
2021/05/03 07:56:52;;;;;;;1.90;1.35;;;;;;;;;;5001623;28;20088;-73
2021/05/03 07:59:19;;;;;;;2.45;1.60;;;;;;;;;;4999881;28;20540;-73
2021/05/03 08:01:45;;;;;;;3.50;1.60;;;;;;;;;;4995690;28;20775;-73
2021/05/03 08:04:11;;;;;;;2.85;1.58;;;;;;;;;;5001189;28;20069;-73
2021/05/03 08:06:38;;;;;;;2.72;1.40;;;;;;;;;;5000760;28;20058;-73
2021/05/03 08:09:06;;;;;;;2.17;1.40;;;;;;;;;;4990879;28;20049;-73
2021/05/03 08:11:32;;;;;;;2.70;1.55;;;;;;;;;;4999526;28;20418;-73
2021/05/03 08:13:59;;;;;;;3.03;1.92;;;;;;;;;;4998648;28;20071;-73
2021/05/03 08:16:27;;;;;;;3.05;1.90;;;;;;;;;;4999506;28;20045;-73
2021/05/03 08:18:54;;;;;;;3.42;2.00;;;;;;;;;;5002028;28;20061;-72
2021/05/03 08:21:20;;;;;;;2.45;1.52;;;;;;;;;;4980951;28;20042;-73
2021/05/03 08:23:47;;;;;;;2.67;1.80;;;;;;;;;;5003331;28;20145;-72
2021/05/03 08:26:13;;;;;;;3.90;1.80;;;;;;;;;;5005167;28;20042;-73
2021/05/03 08:28:40;;;;;;;2.97;1.60;;;;;;;;;;5006868;28;20497;-73
2021/05/03 08:31:07;;;;;;;2.85;1.75;;;;;;;;;;4998460;28;20058;-76
2021/05/03 08:33:33;;;;;;;2.53;1.50;;;;;;;;;;5004986;28;20155;-73
2021/05/03 08:36:00;;;;;;;2.20;1.60;;;;;;;;;;5001094;28;20057;-73
2021/05/03 08:38:26;;;;;;;2.30;1.52;;;;;;;;;;5004918;28;20084;-73
2021/05/03 08:40:53;;;;;;;3.17;1.90;;;;;;;;;;5005384;28;20060;-73
2021/05/03 08:43:20;;;;;;;2.97;1.70;;;;;;;;;;5001953;28;20050;-72
2021/05/03 08:45:48;;;;;;;3.72;1.40;;;;;;;;;;5004269;28;20057;-73
2021/05/03 08:53:42;;;;;;;4.47;1.42;;;;;;;;;;5003925;28;20140;-73
2021/05/03 08:56:09;;;;;;;3.03;1.50;;;;;;;;;;5036797;28;20493;-73
2021/05/03 08:58:37;;;;;;;2.97;1.48;;;;;;;;;;5003990;28;20104;-72
2021/05/03 09:01:03;;;;;;;2.20;1.40;;;;;;;;;;5003385;28;20648;-73
2021/05/03 09:03:30;;;;;;;4.32;1.88;;;;;;;;;;5000909;28;20809;-73
2021/05/03 09:06:02;;;;;;;3.13;1.60;;;;;;;;;;5003762;28;20069;-72
2021/05/03 09:08:29;;;;;;;3.25;1.80;;;;;;;;;;5027929;28;20127;-73
2021/05/03 09:10:56;;;;;;;2.17;1.45;;;;;;;;;;5006383;28;20030;-73
2021/05/03 09:13:27;;;;;;;3.78;1.90;;;;;;;;;;5004793;28;20798;-72
2021/05/03 09:16:11;;;;;;;5.15;1.67;;;;;;;;;;5023819;28;20588;-73
2021/05/03 09:18:38;;;;;;;2.15;1.58;;;;;;;;;;5003902;28;21231;-73
2021/05/03 09:21:04;;;;;;;3.05;1.65;;;;;;;;;;5003846;28;20086;-72
2021/05/03 09:23:31;;;;;;;3.92;1.73;;;;;;;;;;5003631;28;20049;-73
2021/05/03 09:26:00;;;;;;;3.72;1.70;;;;;;;;;;5003330;28;20462;-72
2021/05/03 09:28:30;;;;;;;3.65;1.73;;;;;;;;;;5002400;28;20139;-72
2021/05/03 09:30:57;;;;;;;3.80;1.60;;;;;;;;;;5003392;28;20705;-73
2021/05/03 09:33:27;;;;;;;3.20;1.30;;;;;;;;;;5001041;28;20114;-72
2021/05/03 09:35:55;;;;;;;3.70;1.40;;;;;;;;;;5002555;28;20062;-72
2021/05/03 09:38:32;;;;;;;4.78;1.70;;;;;;;;;;4998733;28;20053;-71
2021/05/03 09:41:31;;;;;;;4.40;1.77;;;;;;;;;;5007759;28;20070;-72
2021/05/03 09:44:04;;;;;;;6.70;1.90;;;;;;;;;;4978162;28;20352;-72
2021/05/03 09:46:39;;;;;;;3.22;1.70;;;;;;;;;;5002133;28;20138;-71
2021/05/03 09:49:09;;;;;;;5.13;1.60;;;;;;;;;;5004293;28;20472;-72
2021/05/03 09:51:37;;;;;;;3.80;1.73;;;;;;;;;;4994967;28;20042;-72
2021/05/03 09:54:04;;;;;;;4.50;1.75;;;;;;;;;;5003423;28;20053;-73
2021/05/03 09:56:46;;;;;;;4.75;1.95;;;;;;;;;;5001395;28;20061;-72
2021/05/03 09:59:29;;;;;;;5.43;1.90;;;;;;;;;;4999245;28;20053;-72
2021/05/03 10:02:05;;;;;;;6.18;1.70;;;;;;;;;;5000110;28;20089;-71
2021/05/03 10:04:32;;;;;;;7.72;1.83;;;;;;;;;;5001394;28;20081;-73
2021/05/03 10:06:59;;;;;;;5.80;2.08;;;;;;;;;;5020206;28;20494;-73
2021/05/03 10:09:26;;;;;;;10.00;5.38;;;;;;;;;;5003246;28;20128;-72
2021/05/03 10:11:53;;;;;;;18.05;4.63;;;;;;;;;;4990594;28;20088;-73
2021/05/03 10:14:21;;;;;;;6.15;2.17;;;;;;;;;;5000412;28;20065;-70
2021/05/03 10:16:48;;;;;;;5.70;1.98;;;;;;;;;;5003013;28;20430;-70
2021/05/03 10:19:18;;;;;;;4.45;1.52;;;;;;;;;;5003300;28;20588;-71
2021/05/03 10:21:45;;;;;;;3.72;1.88;;;;;;;;;;5017459;28;20439;-70
2021/05/03 10:24:15;;;;;;;6.50;1.80;;;;;;;;;;4999727;28;20061;-71
2021/05/03 10:26:42;;;;;;;5.68;1.83;;;;;;;;;;5001559;28;20058;-71
2021/05/03 10:29:24;;;;;;;5.05;1.85;;;;;;;;;;5001293;28;20656;-71
2021/05/03 10:31:57;;;;;;;6.53;1.88;;;;;;;;;;4998386;28;20069;-70
2021/05/03 10:34:44;;;;;;;4.65;1.67;;;;;;;;;;5000111;28;20041;-71
2021/05/03 10:37:29;;;;;;;6.28;1.90;;;;;;;;;;5000745;28;20114;-71
2021/05/03 10:39:56;;;;;;;3.50;1.80;;;;;;;;;;5002765;28;20088;-72
2021/05/03 10:42:22;;;;;;;4.18;1.65;;;;;;;;;;4997438;28;20062;-72
2021/05/03 10:45:10;;;;;;;4.60;1.48;;;;;;;;;;5001762;28;20061;-73
2021/05/03 10:47:46;;;;;;;3.55;1.40;;;;;;;;;;5002257;28;20074;-72
2021/05/03 10:50:32;;;;;;;5.28;1.50;;;;;;;;;;4974551;28;20082;-74
2021/05/03 10:53:17;;;;;;;3.40;1.52;;;;;;;;;;5001784;28;20115;-72
2021/05/03 10:56:19;;;;;;;3.55;1.33;;;;;;;;;;5000338;28;20240;-73
2021/05/03 10:59:05;;;;;;;3.22;1.50;;;;;;;;;;4956927;28;20094;-73
2021/05/03 11:01:55;;;;;;;2.60;1.52;;;;;;;;;;4984677;28;20050;-72
2021/05/03 11:04:28;;;;;;;3.42;1.50;;;;;;;;;;4981264;28;20115;-73
2021/05/03 11:06:57;;;;;;;3.05;1.48;;;;;;;;;;4982030;28;20892;-72
2021/05/03 11:09:24;;;;;;;3.10;1.10;;;;;;;;;;4960922;28;20058;-72
2021/05/03 11:11:50;;;;;;;3.90;1.25;;;;;;;;;;4982469;28;20578;-73
2021/05/03 11:14:20;;;;;;;4.25;1.20;;;;;;;;;;4981637;28;20148;-73
2021/05/03 11:16:47;;;;;;;2.88;1.30;;;;;;;;;;4982419;28;20057;-72
2021/05/03 11:22:06;;;;;;;5.20;1.40;;;;;;;;;;4981531;28;20159;-72
2021/05/03 11:24:37;;;;;;;4.05;1.30;;;;;;;;;;4980344;28;20507;-72
2021/05/03 11:27:31;;;;;;;3.00;1.35;;;;;;;;;;4958074;28;20042;-72
2021/05/03 11:30:09;;;;;;;3.65;1.38;;;;;;;;;;4967943;28;20030;-71
2021/05/03 11:32:38;;;;;;;3.72;1.50;;;;;;;;;;4979377;28;21365;-71
2021/05/03 11:35:22;;;;;;;4.22;1.30;;;;;;;;;;4978377;28;20593;-72
2021/05/03 11:37:56;;;;;;;5.65;1.20;;;;;;;;;;4979794;28;20045;-73
2021/05/03 11:46:12;;;;;;;4.00;1.60;;;;;;;;;;4943687;28;20062;-73
2021/05/03 11:48:38;;;;;;;3.35;1.20;;;;;;;;;;4985840;28;20044;-72
2021/05/03 11:51:08;;;;;;;4.15;1.20;;;;;;;;;;4985863;28;20066;-73
2021/05/03 11:53:42;;;;;;;3.22;1.27;;;;;;;;;;4980203;28;21918;-72
2021/05/03 11:56:34;;;;;;;3.80;1.23;;;;;;;;;;4971820;28;20046;-74
2021/05/03 11:59:01;;;;;;;3.17;1.17;;;;;;;;;;4979769;28;20058;-73
2021/05/03 12:01:28;;;;;;;2.50;1.08;;;;;;;;;;4977403;28;20545;-73
2021/05/03 12:03:59;;;;;;;2.95;1.17;;;;;;;;;;5000601;28;20096;-73
2021/05/03 12:06:39;;;;;;;2.17;1.10;;;;;;;;;;4981474;28;20062;-73
2021/05/03 12:09:10;;;;;;;2.17;1.08;;;;;;;;;;4981205;28;20092;-74
2021/05/03 12:11:38;;;;;;;3.50;1.20;;;;;;;;;;4979155;28;20680;-75
2021/05/03 12:14:04;;;;;;;3.42;0.95;;;;;;;;;;5011963;28;20058;-74
2021/05/03 12:16:32;;;;;;;2.47;1.33;;;;;;;;;;4980760;28;20569;-75
2021/05/03 12:18:59;;;;;;;2.35;1.15;;;;;;;;;;4980725;28;20042;-74
2021/05/03 12:21:25;;;;;;;2.25;1.00;;;;;;;;;;4982205;28;20070;-75
2021/05/03 12:23:52;;;;;;;3.95;1.30;;;;;;;;;;4982843;28;20043;-75
2021/05/03 12:26:18;;;;;;;1.83;1.00;;;;;;;;;;4979001;28;20114;-74
2021/05/03 12:28:45;;;;;;;3.38;1.10;;;;;;;;;;4997095;28;20193;-75
2021/05/03 12:31:11;;;;;;;1.38;0.93;;;;;;;;;;4979937;28;20529;-76
2021/05/03 12:33:38;;;;;;;2.40;0.95;;;;;;;;;;4962625;28;20062;-75
2021/05/03 12:36:10;;;;;;;2.00;1.00;;;;;;;;;;4979570;28;20108;-74
2021/05/03 12:38:36;;;;;;;3.17;1.08;;;;;;;;;;4977209;28;20594;-75
2021/05/03 12:41:07;;;;;;;3.00;1.20;;;;;;;;;;4981750;28;20081;-75
2021/05/03 12:43:39;;;;;;;1.70;0.82;;;;;;;;;;4978145;28;20242;-75
2021/05/03 12:53:50;;;;;;;1.50;0.93;;;;;;;;;;4979564;28;20061;-74
2021/05/03 13:04:30;;;;;;;1.50;0.90;;;;;;;;;;4981418;28;20082;-75
2021/05/03 13:29:44;;;;;;;2.08;1.02;;;;;;;;;;4982945;28;20137;-74
2021/05/03 13:32:15;;;;;;;2.40;0.90;;;;;;;;;;4981553;28;20156;-76
2021/05/03 13:34:41;;;;;;;2.03;0.90;;;;;;;;;;4983146;28;20503;-74
2021/05/03 13:37:10;;;;;;;3.42;1.10;;;;;;;;;;4982329;28;20547;-74
2021/05/03 13:39:36;;;;;;;3.63;0.90;;;;;;;;;;4979729;28;20144;-74
2021/05/03 13:42:03;;;;;;;3.42;0.98;;;;;;;;;;4983108;28;20588;-75
2021/05/03 13:44:29;;;;;;;2.47;1.00;;;;;;;;;;4982126;28;20054;-74
2021/05/03 13:46:56;;;;;;;2.25;1.00;;;;;;;;;;4981918;28;20058;-74
2021/05/03 13:49:22;;;;;;;1.63;0.88;;;;;;;;;;4983519;28;20062;-74
2021/05/03 13:51:48;;;;;;;1.85;1.05;;;;;;;;;;4983399;28;20070;-75
2021/05/03 13:54:15;;;;;;;2.15;0.70;;;;;;;;;;4990462;28;20070;-75
2021/05/03 13:56:42;;;;;;;3.72;1.08;;;;;;;;;;4982051;28;20054;-75
2021/05/03 13:59:08;;;;;;;1.42;0.75;;;;;;;;;;4965493;28;20066;-75
2021/05/03 14:01:35;;;;;;;2.00;1.05;;;;;;;;;;4982904;28;20089;-75
2021/05/03 14:04:01;;;;;;;2.85;0.82;;;;;;;;;;4983877;28;20686;-75
2021/05/03 14:06:28;;;;;;;2.65;0.90;;;;;;;;;;4983367;28;20756;-75
2021/05/03 14:08:54;;;;;;;2.53;1.00;;;;;;;;;;4981090;28;20066;-75
2021/05/03 14:11:21;;;;;;;2.63;0.85;;;;;;;;;;4970356;28;20498;-74
2021/05/03 14:13:48;;;;;;;2.45;1.05;;;;;;;;;;5000977;28;20058;-74
2021/05/03 14:16:15;;;;;;;1.75;0.80;;;;;;;;;;4982833;28;20062;-75
2021/05/03 14:18:41;;;;;;;2.25;0.90;;;;;;;;;;4981794;28;20051;-74
2021/05/03 14:21:11;;;;;;;2.95;0.90;;;;;;;;;;4986266;28;20042;-74
2021/05/03 14:23:37;;;;;;;2.00;0.80;;;;;;;;;;4989588;28;20511;-75
2021/05/03 14:26:05;;;;;;;2.80;1.05;;;;;;;;;;4991184;28;20034;-75
2021/05/03 14:28:38;;;;;;;1.10;0.73;;;;;;;;;;4986995;28;20058;-75
2021/05/03 14:31:08;;;;;;;3.05;1.10;;;;;;;;;;4983057;28;20038;-75
2021/05/03 14:33:37;;;;;;;2.38;0.70;;;;;;;;;;4983964;28;20563;-74
2021/05/03 14:36:06;;;;;;;2.05;0.88;;;;;;;;;;4985871;28;20050;-74
2021/05/03 14:38:32;;;;;;;2.10;0.90;;;;;;;;;;4985305;28;20035;-74
2021/05/03 14:40:59;;;;;;;1.83;0.80;;;;;;;;;;4981995;28;20671;-73
2021/05/03 14:43:26;;;;;;;2.33;0.90;;;;;;;;;;4981192;28;20085;-74
2021/05/03 14:46:04;;;;;;;2.22;0.80;;;;;;;;;;4983922;28;20065;-74
2021/05/03 14:51:24;;;;;;;2.20;0.90;;;;;;;;;;4974819;28;20538;-73
2021/05/03 14:53:58;;;;;;;2.25;0.80;;;;;;;;;;4982022;28;20034;-73
2021/05/03 14:56:25;;;;;;;4.68;0.93;;;;;;;;;;4975342;28;20070;-74
2021/05/03 14:58:51;;;;;;;1.40;0.60;;;;;;;;;;4955278;28;20119;-73
2021/05/03 15:01:18;;;;;;;2.28;0.90;;;;;;;;;;4981084;28;20061;-73
2021/05/03 15:03:45;;;;;;;1.35;0.57;;;;;;;;;;4982841;28;20070;-73
2021/05/03 15:06:14;;;;;;;2.45;0.85;;;;;;;;;;4997648;28;20050;-74
2021/05/03 15:08:41;;;;;;;3.42;0.70;;;;;;;;;;4983067;28;20196;-74
2021/05/03 15:11:07;;;;;;;1.90;0.77;;;;;;;;;;4982306;28;20659;-75
2021/05/03 15:13:36;;;;;;;2.72;0.90;;;;;;;;;;4959344;28;21537;-74
2021/05/03 15:16:19;;;;;;;2.10;1.02;;;;;;;;;;4967291;28;20159;-74
2021/05/03 15:19:34;;;;;;;2.95;0.82;;;;;;;;;;4974101;28;20145;-75
2021/05/03 15:21:38;;;;;;;3.63;0.80;;;;;;;;;;4973555;28;20124;-73
2021/05/03 15:24:11;;;;;;;1.52;0.73;;;;;;;;;;4998229;28;20038;-74
2021/05/03 15:26:41;;;;;;;2.30;0.77;;;;;;;;;;4980248;28;20274;-73
2021/05/03 15:29:30;;;;;;;2.28;0.85;;;;;;;;;;4985763;28;20128;-74
2021/05/03 15:34:36;;;;;;;0.85;0.70;;;;;;;;;;4978640;28;20322;-75
2021/05/03 15:37:02;;;;;;;1.60;0.82;;;;;;;;;;4984241;28;20549;-74
2021/05/03 15:39:29;;;;;;;2.38;0.60;;;;;;;;;;4980757;28;21817;-75
2021/05/03 15:41:55;;;;;;;2.10;0.70;;;;;;;;;;4982897;28;20529;-75
2021/05/03 15:44:25;;;;;;;7.32;1.67;;;;;;;;;;4979752;28;20042;-74
2021/05/03 15:47:10;;;;;;;4.05;1.70;;;;;;;;;;4981813;28;20543;-75
2021/05/03 15:49:55;;;;;;;12.05;6.50;;;;;;;;;;4983556;28;20045;-73
2021/05/03 15:52:42;;;;;;;8.13;2.60;;;;;;;;;;4981266;28;20485;-73
2021/05/03 15:55:28;;;;;;;5.28;1.85;;;;;;;;;;4984538;28;20046;-74
2021/05/03 15:58:16;;;;;;;8.45;2.88;;;;;;;;;;4982589;28;20038;-74
2021/05/03 16:01:03;;;;;;;7.15;2.20;;;;;;;;;;4995410;28;20049;-74
2021/05/03 16:03:49;;;;;;;7.68;2.78;;;;;;;;;;4984218;28;20042;-74
2021/05/03 16:06:38;;;;;;;6.30;2.30;;;;;;;;;;4983036;28;20038;-74